Time;durP1;ratioP1;P1;durP2;ratioP2;P2;SDS_P1;SDS_P2;PMS_P1;PMS_P2;Temp;Humidity;BMP_temperature;BMP_pressure;BME280_temperature;BME280_humidity;BME280_pressure;Samples;Min_cycle;Max_cycle;Signal;HPM_P1;HPM_P2
2024/04/01 00:01:43;;;;;;;0.32;0.32;;;13.60;94.50;15.10;98122.00;;;;5012439;28;20236;-59
2024/04/01 00:04:10;;;;;;;0.40;0.40;;;13.60;94.50;15.10;98131.00;;;;5010578;28;20654;-60
2024/04/01 00:06:36;;;;;;;0.40;0.40;;;13.60;94.50;15.10;98120.00;;;;5015166;28;20297;-59
2024/04/01 00:09:03;;;;;;;0.30;0.30;;;13.60;94.50;15.10;98120.00;;;;5012892;28;20211;-59
2024/04/01 00:11:31;;;;;;;0.35;0.35;;;13.60;94.50;15.10;98115.00;;;;5015634;28;20300;-59
2024/04/01 00:13:58;;;;;;;0.30;0.30;;;13.60;94.50;15.10;98111.00;;;;5012561;28;20593;-62
2024/04/01 00:16:24;;;;;;;0.40;0.40;;;13.60;94.50;15.10;98100.00;;;;5012149;28;20217;-59
2024/04/01 00:18:51;;;;;;;0.30;0.30;;;13.60;94.50;15.10;98083.00;;;;5017387;28;20582;-59
2024/04/01 00:21:18;;;;;;;0.35;0.35;;;13.60;94.50;15.10;98068.00;;;;5015729;28;20217;-59
2024/04/01 00:23:46;;;;;;;0.30;0.30;;;13.60;94.50;15.10;98068.00;;;;5017819;28;20292;-60
2024/04/01 00:26:12;;;;;;;0.40;0.40;;;13.60;94.50;15.10;98063.00;;;;5018229;28;20284;-64
2024/04/01 00:28:41;;;;;;;0.38;0.38;;;13.60;94.50;15.10;98067.00;;;;5011794;28;20204;-60
2024/04/01 00:31:07;;;;;;;0.30;0.30;;;13.60;94.50;15.10;98069.00;;;;5017949;28;20300;-60
2024/04/01 00:33:35;;;;;;;0.30;0.30;;;13.60;94.50;14.70;98071.00;;;;5017923;28;20201;-62
2024/04/01 00:36:01;;;;;;;0.35;0.35;;;13.60;94.50;15.10;98072.00;;;;5016216;28;20233;-60
2024/04/01 00:38:28;;;;;;;0.40;0.40;;;13.60;94.50;15.10;98068.00;;;;5014978;28;20667;-63
2024/04/01 00:40:55;;;;;;;0.30;0.30;;;13.60;94.50;15.10;98082.00;;;;5018634;28;20311;-65
2024/04/01 00:43:25;;;;;;;0.30;0.30;;;13.60;94.50;15.10;98048.00;;;;5016284;28;20237;-64
2024/04/01 00:45:53;;;;;;;0.30;0.30;;;13.60;94.60;15.10;98044.00;;;;5018714;28;20248;-65
2024/04/01 00:48:21;;;;;;;0.32;0.32;;;13.50;94.50;15.10;98070.00;;;;5013997;28;20283;-65
2024/04/01 00:50:50;;;;;;;0.40;0.40;;;13.50;94.50;15.20;98056.00;;;;5017558;28;20241;-65
2024/04/01 00:53:20;;;;;;;0.40;0.40;;;13.50;94.50;15.20;98065.00;;;;5018875;28;20251;-64
2024/04/01 00:55:47;;;;;;;0.40;0.40;;;13.50;94.60;15.20;98059.00;;;;5016217;28;20624;-65
2024/04/01 00:58:16;;;;;;;0.38;0.38;;;13.50;94.50;15.20;98063.00;;;;5017926;28;20284;-65
2024/04/01 01:00:47;;;;;;;0.40;0.40;;;13.50;94.60;15.10;98050.00;;;;5015640;28;20222;-66
2024/04/01 01:03:17;;;;;;;0.40;0.40;;;13.50;94.50;15.00;98060.00;;;;5013396;28;20215;-65
2024/04/01 01:05:44;;;;;;;0.30;0.30;;;13.50;94.60;15.00;98017.00;;;;5014707;28;20624;-65
2024/04/01 01:08:13;;;;;;;0.40;0.40;;;13.50;94.60;15.00;98064.00;;;;5014129;28;20216;-65
2024/04/01 01:10:40;;;;;;;0.30;0.30;;;13.40;94.60;15.00;98066.00;;;;5017558;28;20296;-65
2024/04/01 01:13:08;;;;;;;0.40;0.40;;;13.40;94.60;15.00;98047.00;;;;5017816;28;20472;-65
2024/04/01 01:15:34;;;;;;;0.40;0.40;;;13.40;94.60;15.00;98058.00;;;;5015834;28;20213;-65
2024/04/01 01:18:04;;;;;;;0.40;0.40;;;13.40;94.60;15.00;98056.00;;;;5018666;28;20225;-72
2024/04/01 01:20:32;;;;;;;0.30;0.30;;;13.30;94.60;15.00;98053.00;;;;5013168;28;20287;-63
2024/04/01 01:23:09;;;;;;;0.40;0.40;;;13.40;94.70;15.00;98044.00;;;;5017826;28;20205;-66
2024/04/01 01:25:37;;;;;;;0.40;0.40;;;13.30;94.70;15.00;98055.00;;;;5016533;28;20886;-64
2024/04/01 01:28:06;;;;;;;0.40;0.40;;;13.30;94.60;15.00;98033.00;;;;5020140;28;20475;-64
2024/04/01 01:30:35;;;;;;;0.30;0.30;;;13.30;94.60;15.00;98012.00;;;;5014310;28;20300;-70
2024/04/01 01:33:06;;;;;;;0.40;0.40;;;13.30;94.60;14.90;98047.00;;;;5017197;28;20209;-65
2024/04/01 01:35:37;;;;;;;0.40;0.40;;;13.30;94.70;14.90;98046.00;;;;5017108;28;20205;-65
2024/04/01 01:38:07;;;;;;;0.35;0.35;;;13.20;94.70;14.80;98046.00;;;;5014724;28;20237;-66
2024/04/01 01:40:33;;;;;;;0.40;0.40;;;13.20;94.70;14.80;98034.00;;;;5015605;28;20606;-66
2024/04/01 01:43:00;;;;;;;0.30;0.30;;;13.20;94.70;14.80;98024.00;;;;5014312;28;20236;-65
2024/04/01 01:45:27;;;;;;;0.30;0.30;;;13.10;94.70;14.80;98028.00;;;;5015137;28;20559;-66
2024/04/01 01:47:54;;;;;;;0.40;0.40;;;13.10;94.80;14.80;98010.00;;;;5015540;28;20687;-60
2024/04/01 01:50:20;;;;;;;0.40;0.40;;;13.10;94.80;14.80;98009.00;;;;5015506;28;20649;-64
2024/04/01 01:52:48;;;;;;;0.32;0.32;;;13.10;94.80;14.80;98021.00;;;;5013365;28;20215;-60
2024/04/01 01:55:17;;;;;;;0.30;0.30;;;13.10;94.80;14.80;97976.00;;;;5014300;28;20213;-62
2024/04/01 01:57:45;;;;;;;0.30;0.30;;;13.10;94.90;14.80;98010.00;;;;5018273;28;20304;-61
2024/04/01 02:00:13;;;;;;;0.30;0.30;;;13.10;94.90;14.90;98001.00;;;;5015830;28;20299;-61
2024/04/01 02:02:41;;;;;;;0.40;0.40;;;13.10;94.90;14.90;97986.00;;;;5016168;28;20229;-60
2024/04/01 02:05:08;;;;;;;0.30;0.30;;;13.10;94.90;14.90;97985.00;;;;5010317;28;20215;-61
2024/04/01 02:07:35;;;;;;;0.40;0.40;;;13.20;94.90;14.90;97979.00;;;;5016096;28;20554;-66
2024/04/01 02:10:03;;;;;;;0.30;0.30;;;13.20;94.90;14.80;97980.00;;;;5018510;28;20290;-66
2024/04/01 02:12:32;;;;;;;0.30;0.30;;;13.20;94.90;15.00;97984.00;;;;5014680;28;20305;-64
2024/04/01 02:14:59;;;;;;;0.40;0.40;;;13.20;94.90;15.00;97977.00;;;;5013111;28;20292;-66
2024/04/01 02:17:26;;;;;;;0.40;0.40;;;13.20;94.90;15.00;97987.00;;;;5017316;28;20554;-66
2024/04/01 02:19:52;;;;;;;0.38;0.38;;;13.20;94.90;15.00;97970.00;;;;5015307;28;20257;-66
2024/04/01 02:22:22;;;;;;;0.30;0.30;;;13.20;94.90;14.90;97982.00;;;;5019052;28;20581;-66
2024/04/01 02:24:49;;;;;;;0.40;0.40;;;13.20;94.90;14.90;97975.00;;;;5015171;28;20205;-66
2024/04/01 02:27:16;;;;;;;0.40;0.40;;;13.10;94.80;14.90;97969.00;;;;5015085;28;20699;-66
2024/04/01 02:29:44;;;;;;;0.30;0.30;;;13.10;94.80;14.90;97973.00;;;;5011878;28;20261;-65
2024/04/01 02:32:11;;;;;;;0.30;0.30;;;13.10;94.90;14.90;97980.00;;;;5014816;28;20205;-65
2024/04/01 02:34:38;;;;;;;0.40;0.40;;;13.10;94.90;14.90;97996.00;;;;5014125;28;20323;-66
2024/04/01 02:37:05;;;;;;;0.40;0.40;;;13.10;94.90;14.80;97995.00;;;;5014464;28;20669;-66
2024/04/01 02:39:33;;;;;;;0.30;0.30;;;13.10;94.90;14.80;97993.00;;;;5014830;28;20233;-65
2024/04/01 02:42:00;;;;;;;0.40;0.40;;;13.10;94.90;14.80;97989.00;;;;5010898;28;20268;-64
2024/04/01 02:44:26;;;;;;;0.40;0.40;;;13.00;94.90;14.70;97987.00;;;;5012146;28;20318;-65
2024/04/01 02:46:55;;;;;;;0.40;0.40;;;13.00;94.90;14.70;97975.00;;;;5015595;28;20677;-65
2024/04/01 02:49:21;;;;;;;0.40;0.40;;;13.00;94.90;14.70;97972.00;;;;5013062;28;20577;-69
2024/04/01 02:51:49;;;;;;;0.40;0.40;;;12.90;94.90;14.70;97964.00;;;;5014999;28;20205;-66
2024/04/01 02:54:15;;;;;;;0.40;0.40;;;12.90;94.90;14.60;97968.00;;;;5013571;28;20214;-65
2024/04/01 02:56:43;;;;;;;0.40;0.40;;;12.90;95.00;14.60;97943.00;;;;5012853;28;20208;-65
2024/04/01 02:59:11;;;;;;;0.40;0.40;;;12.90;95.00;14.60;97952.00;;;;5013451;28;20205;-65
2024/04/01 03:01:40;;;;;;;0.45;0.45;;;12.90;95.10;14.60;97952.00;;;;5013226;28;20225;-65
2024/04/01 03:04:08;;;;;;;0.40;0.40;;;12.90;95.10;14.50;97950.00;;;;5015029;28;20217;-65
2024/04/01 03:06:36;;;;;;;0.40;0.40;;;12.90;95.10;14.60;97941.00;;;;5014295;28;20737;-65
2024/04/01 03:09:03;;;;;;;0.40;0.40;;;12.90;95.10;14.60;97955.00;;;;5014423;28;20296;-65
2024/04/01 03:11:30;;;;;;;0.40;0.40;;;12.90;95.10;14.60;97924.00;;;;5013053;28;20292;-65
2024/04/01 03:13:56;;;;;;;0.40;0.40;;;12.90;95.10;14.60;97931.00;;;;5013603;28;20213;-64
2024/04/01 03:16:24;;;;;;;0.40;0.40;;;12.80;95.10;14.60;97951.00;;;;5015603;28;20396;-68
2024/04/01 03:18:54;;;;;;;0.40;0.40;;;12.80;95.10;14.60;97953.00;;;;5011960;28;20205;-64
2024/04/01 03:21:24;;;;;;;0.40;0.40;;;12.80;95.10;14.60;97947.00;;;;5012334;28;20262;-64
2024/04/01 03:23:52;;;;;;;0.50;0.50;;;12.80;95.20;14.60;97951.00;;;;5014202;28;20232;-65
2024/04/01 03:26:20;;;;;;;0.50;0.50;;;12.80;95.10;14.60;97944.00;;;;5011721;28;20213;-65
2024/04/01 03:28:48;;;;;;;0.40;0.40;;;12.80;95.20;14.60;97943.00;;;;5011110;28;20642;-62
2024/04/01 03:31:15;;;;;;;0.40;0.40;;;12.80;95.20;14.60;97934.00;;;;5016239;28;20204;-61
2024/04/01 03:33:44;;;;;;;0.40;0.40;;;12.80;95.20;14.60;97935.00;;;;5013439;28;20208;-66
2024/04/01 03:36:11;;;;;;;0.40;0.40;;;12.80;95.20;14.40;97919.00;;;;5018657;28;20302;-61
2024/04/01 03:38:41;;;;;;;0.40;0.40;;;12.80;95.20;14.50;97902.00;;;;5011830;28;20209;-60
2024/04/01 03:41:09;;;;;;;0.40;0.40;;;12.80;95.30;14.50;97934.00;;;;5019387;28;20315;-60
2024/04/01 03:43:36;;;;;;;0.40;0.40;;;12.80;95.30;14.50;97940.00;;;;5015558;28;20240;-60
2024/04/01 03:46:03;;;;;;;0.40;0.40;;;12.80;95.30;14.50;97940.00;;;;5012651;28;20204;-60
2024/04/01 03:48:34;;;;;;;0.30;0.30;;;12.70;95.20;14.40;97926.00;;;;5012714;28;20201;-60
2024/04/01 03:51:01;;;;;;;0.40;0.40;;;12.70;95.20;14.50;97947.00;;;;5018242;28;20213;-63
2024/04/01 03:53:28;;;;;;;0.40;0.40;;;12.70;95.20;14.40;97931.00;;;;5013193;28;20209;-60
2024/04/01 03:55:57;;;;;;;0.40;0.40;;;12.70;95.30;14.40;97920.00;;;;5018062;28;20215;-60
2024/04/01 03:58:24;;;;;;;0.40;0.40;;;12.70;95.30;14.40;97939.00;;;;5017477;28;20678;-63
2024/04/01 04:00:50;;;;;;;0.50;0.50;;;12.70;95.30;14.40;97942.00;;;;5019136;28;20667;-59
2024/04/01 04:03:18;;;;;;;0.40;0.40;;;12.70;95.30;14.40;97954.00;;;;5018114;28;20620;-61
2024/04/01 04:05:46;;;;;;;0.40;0.40;;;12.70;95.30;14.40;97938.00;;;;5017433;28;20602;-59
2024/04/01 04:08:13;;;;;;;0.40;0.40;;;12.70;95.40;14.40;97924.00;;;;5018313;28;20205;-59
2024/04/01 04:10:42;;;;;;;0.40;0.40;;;12.60;95.30;14.40;97929.00;;;;5018078;28;20283;-60
2024/04/01 04:13:12;;;;;;;0.30;0.30;;;12.60;95.40;14.40;97954.00;;;;5016042;28;20228;-60
2024/04/01 04:15:40;;;;;;;0.40;0.40;;;12.60;95.40;14.30;97952.00;;;;5020314;28;20213;-60
2024/04/01 04:18:08;;;;;;;0.40;0.40;;;12.60;95.40;14.40;97960.00;;;;5015832;28;20197;-61
2024/04/01 04:20:36;;;;;;;0.30;0.30;;;12.60;95.40;14.30;97962.00;;;;5016164;28;20217;-60
2024/04/01 04:23:04;;;;;;;0.40;0.40;;;12.60;95.40;14.30;97957.00;;;;5018985;28;20586;-64
2024/04/01 04:25:32;;;;;;;0.40;0.40;;;12.60;95.50;14.30;97974.00;;;;5019725;28;20198;-59
2024/04/01 04:27:59;;;;;;;0.40;0.40;;;12.60;95.50;14.30;97970.00;;;;5015928;28;20216;-60
2024/04/01 04:30:28;;;;;;;0.30;0.30;;;12.60;95.60;14.30;97946.00;;;;5017678;28;20306;-59
2024/04/01 04:32:54;;;;;;;0.40;0.40;;;12.60;95.60;14.30;97950.00;;;;5013388;28;20197;-59
2024/04/01 04:35:22;;;;;;;0.40;0.40;;;12.60;95.60;14.40;97970.00;;;;5013289;28;20194;-60
2024/04/01 04:37:51;;;;;;;0.30;0.30;;;12.60;95.60;14.40;97956.00;;;;5012223;28;20340;-59
2024/04/01 04:40:18;;;;;;;0.38;0.38;;;12.60;95.60;14.40;97980.00;;;;5014556;28;20666;-60
2024/04/01 04:42:45;;;;;;;0.40;0.40;;;12.60;95.60;14.40;97951.00;;;;5018507;28;20224;-60
2024/04/01 04:45:13;;;;;;;0.40;0.40;;;12.60;95.60;14.40;97972.00;;;;5013676;28;20669;-60
2024/04/01 04:47:40;;;;;;;0.40;0.40;;;12.70;95.70;14.40;97988.00;;;;5018314;28;20208;-67
2024/04/01 04:50:08;;;;;;;0.38;0.38;;;12.70;95.80;14.40;97979.00;;;;5017737;28;20220;-67
2024/04/01 04:52:34;;;;;;;0.40;0.40;;;12.70;95.70;14.40;97977.00;;;;5016790;28;20295;-64
2024/04/01 04:55:01;;;;;;;0.40;0.40;;;12.70;95.70;14.40;97966.00;;;;5015918;28;20198;-65
2024/04/01 04:57:27;;;;;;;0.30;0.30;;;12.70;95.80;14.40;97959.00;;;;5018912;28;20300;-64
2024/04/01 04:59:54;;;;;;;0.30;0.30;;;12.70;95.70;14.40;97962.00;;;;5015663;28;20724;-65
2024/04/01 05:02:22;;;;;;;0.30;0.30;;;12.70;95.70;14.40;97980.00;;;;5016651;28;20268;-65
2024/04/01 05:04:51;;;;;;;0.40;0.40;;;12.70;95.80;14.40;97962.00;;;;5012676;28;20605;-64
2024/04/01 05:07:17;;;;;;;0.40;0.40;;;12.80;95.90;14.50;97987.00;;;;5018353;28;20692;-64
2024/04/01 05:09:47;;;;;;;0.30;0.30;;;12.80;95.90;14.40;98000.00;;;;5015771;28;20201;-64
2024/04/01 05:12:14;;;;;;;0.40;0.40;;;12.80;95.90;14.50;97975.00;;;;5017716;28;20210;-64
2024/04/01 05:14:41;;;;;;;0.30;0.30;;;12.80;95.90;14.50;97989.00;;;;5019113;28;20594;-64
2024/04/01 05:17:09;;;;;;;0.30;0.30;;;12.90;96.00;14.60;97991.00;;;;5016853;28;20202;-59
2024/04/01 05:19:36;;;;;;;0.40;0.40;;;12.90;96.00;14.60;97999.00;;;;5016513;28;20876;-59
2024/04/01 05:22:04;;;;;;;0.40;0.40;;;12.90;96.00;14.60;97992.00;;;;5016675;28;20222;-63
2024/04/01 05:24:31;;;;;;;0.30;0.30;;;12.90;96.00;14.60;98003.00;;;;5013204;28;20240;-59
2024/04/01 05:26:58;;;;;;;0.38;0.38;;;12.90;96.00;14.60;98001.00;;;;5013960;28;20617;-59
2024/04/01 05:29:25;;;;;;;0.30;0.30;;;12.90;96.00;14.60;98010.00;;;;5015346;28;20205;-69
2024/04/01 05:31:51;;;;;;;0.38;0.38;;;12.90;96.00;14.60;98000.00;;;;5016391;28;20210;-64
2024/04/01 05:34:20;;;;;;;0.50;0.50;;;12.90;96.00;14.50;98002.00;;;;5015294;28;20204;-61
2024/04/01 05:36:47;;;;;;;0.40;0.40;;;12.90;96.00;14.50;98008.00;;;;5018118;28;20208;-60
2024/04/01 05:39:15;;;;;;;0.40;0.40;;;12.90;96.00;14.50;98013.00;;;;5016950;28;20211;-59
2024/04/01 05:41:41;;;;;;;0.38;0.38;;;12.90;96.10;14.50;98021.00;;;;5015739;28;20230;-59
2024/04/01 05:44:09;;;;;;;0.30;0.30;;;12.90;96.10;14.50;98026.00;;;;5014007;28;20237;-58
2024/04/01 05:46:35;;;;;;;0.38;0.38;;;12.90;96.10;14.50;98030.00;;;;5016928;28;20301;-58
2024/04/01 05:49:03;;;;;;;0.35;0.35;;;12.90;96.10;14.40;98030.00;;;;5014513;28;20202;-60
2024/04/01 05:51:29;;;;;;;0.40;0.40;;;12.90;96.10;14.40;98036.00;;;;5018479;28;20660;-60
2024/04/01 05:53:56;;;;;;;0.40;0.40;;;12.90;96.10;14.40;98044.00;;;;5013070;28;20223;-59
2024/04/01 05:56:24;;;;;;;0.40;0.40;;;12.90;96.20;14.40;98040.00;;;;5013208;28;20626;-59
2024/04/01 05:58:51;;;;;;;0.30;0.30;;;12.90;96.20;14.40;98047.00;;;;5012503;28;20296;-64
2024/04/01 06:01:21;;;;;;;0.30;0.30;;;12.90;96.20;14.40;98043.00;;;;5019962;28;20308;-64
2024/04/01 06:03:48;;;;;;;0.40;0.40;;;12.90;96.30;14.50;98050.00;;;;5014488;28;20607;-64
2024/04/01 06:06:15;;;;;;;0.40;0.40;;;12.90;96.30;14.50;97927.00;;;;5018677;28;20628;-64
2024/04/01 06:08:42;;;;;;;0.40;0.40;;;12.90;96.30;14.50;98046.00;;;;5014675;28;20201;-63
2024/04/01 06:11:08;;;;;;;0.30;0.30;;;12.90;96.30;14.50;98044.00;;;;5018329;28;20231;-64
2024/04/01 06:13:37;;;;;;;0.40;0.40;;;12.90;96.40;14.50;98025.00;;;;5016750;28;20319;-67
2024/04/01 06:16:08;;;;;;;0.30;0.30;;;12.90;96.40;14.50;98029.00;;;;5017472;28;20672;-64
2024/04/01 06:18:39;;;;;;;0.43;0.43;;;12.90;96.50;14.50;98046.00;;;;5013553;28;20217;-69
2024/04/01 06:21:06;;;;;;;0.40;0.40;;;12.90;96.50;14.60;98051.00;;;;5018210;28;20437;-65
2024/04/01 06:23:37;;;;;;;0.30;0.30;;;12.90;96.50;14.60;98048.00;;;;5018750;28;20213;-65
2024/04/01 06:26:08;;;;;;;0.40;0.40;;;12.90;96.50;14.60;98036.00;;;;5014590;28;20781;-66
2024/04/01 06:28:37;;;;;;;0.40;0.40;;;12.90;96.70;14.60;98050.00;;;;5020214;28;20201;-67
2024/04/01 06:31:05;;;;;;;0.40;0.40;;;12.90;96.60;14.70;98008.00;;;;5015709;28;20221;-66
2024/04/01 06:33:34;;;;;;;0.35;0.35;;;12.90;96.70;14.70;98034.00;;;;5010611;28;20620;-66
2024/04/01 06:36:01;;;;;;;0.35;0.35;;;12.90;96.70;14.70;98055.00;;;;5014703;28;20573;-65
2024/04/01 06:38:29;;;;;;;0.30;0.30;;;12.90;96.70;14.70;98036.00;;;;5016131;28;20217;-65
2024/04/01 06:40:56;;;;;;;0.40;0.40;;;12.90;96.70;14.70;98057.00;;;;5015271;28;20324;-67
2024/04/01 06:43:33;;;;;;;0.40;0.40;;;12.90;96.80;14.70;98049.00;;;;5013246;28;20320;-65
2024/04/01 06:46:05;;;;;;;0.30;0.30;;;13.00;97.10;14.80;98061.00;;;;5011038;28;20219;-66
2024/04/01 06:48:34;;;;;;;0.40;0.40;;;13.00;96.90;14.80;98061.00;;;;5016949;28;20564;-66
2024/04/01 06:51:01;;;;;;;0.38;0.38;;;13.00;96.90;14.80;98072.00;;;;5018012;28;20205;-66
2024/04/01 06:53:29;;;;;;;0.40;0.40;;;13.00;96.90;14.80;98071.00;;;;5015915;28;20256;-66
2024/04/01 06:55:55;;;;;;;0.40;0.40;;;13.00;96.90;14.80;98072.00;;;;5016572;28;20254;-65
2024/04/01 06:58:23;;;;;;;0.30;0.30;;;13.00;96.90;14.90;98068.00;;;;5014250;28;20205;-65
2024/04/01 07:00:49;;;;;;;0.30;0.30;;;13.10;97.00;14.90;98071.00;;;;5016525;28;20347;-65
2024/04/01 07:03:20;;;;;;;0.30;0.30;;;13.10;97.00;14.80;98070.00;;;;5013652;28;20210;-65
2024/04/01 07:05:48;;;;;;;0.30;0.30;;;13.10;97.00;14.80;98066.00;;;;5014497;28;20570;-63
2024/04/01 07:08:18;;;;;;;0.40;0.40;;;13.10;97.00;14.80;98067.00;;;;5014140;28;20713;-59
2024/04/01 07:10:45;;;;;;;0.40;0.40;;;13.10;97.00;14.80;98066.00;;;;5015552;28;20223;-60
2024/04/01 07:13:13;;;;;;;0.35;0.35;;;13.10;97.00;14.80;98057.00;;;;5015352;28;20201;-62
2024/04/01 07:15:39;;;;;;;0.40;0.40;;;13.10;97.00;14.80;98078.00;;;;5017791;28;20534;-60
2024/04/01 07:18:07;;;;;;;0.40;0.40;;;13.10;97.00;14.80;98088.00;;;;5013074;28;20210;-61
2024/04/01 07:20:35;;;;;;;0.30;0.30;;;13.10;97.10;14.90;98058.00;;;;5016581;28;20228;-61
2024/04/01 07:23:02;;;;;;;0.40;0.40;;;13.10;97.20;14.90;98085.00;;;;5012758;28;20296;-61
2024/04/01 07:25:29;;;;;;;0.32;0.32;;;13.10;97.20;14.90;98090.00;;;;5013633;28;20707;-60
2024/04/01 07:27:57;;;;;;;0.40;0.40;;;13.20;97.30;14.90;98070.00;;;;5013079;28;20656;-60
2024/04/01 07:30:25;;;;;;;0.40;0.40;;;13.10;97.30;15.00;98096.00;;;;5012160;28;20275;-60
2024/04/01 07:32:52;;;;;;;0.30;0.30;;;13.20;97.30;15.00;98105.00;;;;5015855;28;20315;-61
2024/04/01 07:35:20;;;;;;;0.30;0.30;;;13.20;97.30;15.00;98108.00;;;;5013340;28;20624;-62
2024/04/01 07:37:51;;;;;;;0.40;0.40;;;13.20;97.30;15.00;98102.00;;;;5013940;28;20835;-65
2024/04/01 07:40:17;;;;;;;0.40;0.40;;;13.20;97.40;15.00;98099.00;;;;5017987;28;20217;-65
2024/04/01 07:42:45;;;;;;;0.30;0.30;;;13.20;97.30;15.00;98078.00;;;;5014189;28;20625;-64
2024/04/01 07:45:15;;;;;;;0.30;0.30;;;13.20;97.30;15.00;98121.00;;;;5014937;28;20217;-66
2024/04/01 07:47:43;;;;;;;0.40;0.40;;;13.20;97.40;15.00;98114.00;;;;5017857;28;20212;-66
2024/04/01 07:50:10;;;;;;;0.30;0.30;;;13.20;97.40;15.00;98134.00;;;;5013889;28;20220;-65
2024/04/01 07:52:38;;;;;;;0.30;0.30;;;13.20;97.30;15.00;98131.00;;;;5017675;28;20529;-67
2024/04/01 07:55:06;;;;;;;0.40;0.40;;;13.20;97.40;15.00;98128.00;;;;5013290;28;20208;-69
2024/04/01 07:57:34;;;;;;;0.30;0.30;;;13.20;97.40;15.00;98137.00;;;;5014464;28;20197;-66
2024/04/01 08:00:01;;;;;;;0.40;0.40;;;13.20;97.40;15.00;98114.00;;;;5014951;28;20244;-67
2024/04/01 08:02:28;;;;;;;0.30;0.30;;;13.20;97.40;15.00;98134.00;;;;5013863;28;20709;-66
2024/04/01 08:04:56;;;;;;;0.40;0.40;;;13.30;97.50;15.00;98150.00;;;;5011983;28;20217;-67
2024/04/01 08:07:24;;;;;;;0.40;0.40;;;13.30;97.50;15.00;98141.00;;;;5020305;28;20662;-65
2024/04/01 08:09:53;;;;;;;0.40;0.40;;;13.20;97.40;15.00;98157.00;;;;5013584;28;20662;-65
2024/04/01 08:12:25;;;;;;;0.30;0.30;;;13.30;97.50;15.00;98173.00;;;;5012683;28;20305;-66
2024/04/01 08:14:52;;;;;;;0.40;0.40;;;13.30;97.50;14.90;98154.00;;;;5013867;28;20592;-64
2024/04/01 08:17:25;;;;;;;0.40;0.40;;;13.20;97.40;14.90;98172.00;;;;5015310;28;20216;-65
2024/04/01 08:19:55;;;;;;;0.30;0.30;;;13.30;97.40;14.90;98165.00;;;;5013818;28;20208;-66
2024/04/01 08:22:23;;;;;;;0.30;0.30;;;13.20;97.50;14.90;98169.00;;;;5011216;28;20218;-66
2024/04/01 08:24:49;;;;;;;0.35;0.35;;;13.30;97.50;14.80;98163.00;;;;5014069;28;20211;-66
2024/04/01 08:27:17;;;;;;;0.30;0.30;;;13.20;97.40;14.80;98163.00;;;;5016029;28;20217;-66
2024/04/01 08:29:44;;;;;;;0.30;0.30;;;13.20;97.40;14.70;98129.00;;;;5014545;28;20197;-66
2024/04/01 08:32:12;;;;;;;0.30;0.30;;;13.20;97.50;14.70;98122.00;;;;5012087;28;20220;-66
2024/04/01 08:34:39;;;;;;;0.40;0.40;;;13.20;97.50;14.70;98166.00;;;;5010523;28;20240;-66
2024/04/01 08:37:06;;;;;;;0.32;0.32;;;13.20;97.50;14.60;98165.00;;;;5012802;28;20244;-67
2024/04/01 08:39:32;;;;;;;0.30;0.30;;;13.20;97.50;14.60;98166.00;;;;5014673;28;20202;-64
2024/04/01 08:42:05;;;;;;;0.32;0.32;;;13.10;97.50;14.60;98177.00;;;;5017596;28;20229;-64
2024/04/01 08:44:33;;;;;;;0.40;0.40;;;13.10;97.60;14.60;98181.00;;;;5016183;28;20291;-65
2024/04/01 08:47:03;;;;;;;0.40;0.40;;;13.10;97.60;14.60;98184.00;;;;5017785;28;20214;-66
2024/04/01 08:49:43;;;;;;;0.30;0.30;;;13.10;97.70;14.50;98176.00;;;;5017906;28;20205;-60
2024/04/01 08:52:15;;;;;;;0.30;0.30;;;13.10;97.90;14.60;98188.00;;;;5018551;28;20209;-61
2024/04/01 08:54:42;;;;;;;0.40;0.40;;;13.10;97.70;14.60;98178.00;;;;5014054;28;20233;-60
2024/04/01 08:57:14;;;;;;;0.30;0.30;;;13.10;97.70;14.50;98180.00;;;;5018719;28;20236;-60
2024/04/01 08:59:43;;;;;;;0.30;0.30;;;13.10;97.80;14.50;98177.00;;;;5016239;28;20304;-60
2024/04/01 09:02:11;;;;;;;0.40;0.40;;;13.10;97.80;14.60;98192.00;;;;5015257;28;20303;-62
2024/04/01 09:04:38;;;;;;;0.45;0.45;;;13.10;97.80;14.50;98156.00;;;;5014430;28;20328;-60
2024/04/01 09:07:12;;;;;;;0.32;0.32;;;13.10;97.80;14.50;98205.00;;;;5013695;28;20218;-60
2024/04/01 09:09:39;;;;;;;0.30;0.30;;;13.10;97.80;14.50;98184.00;;;;5015859;28;20274;-60
2024/04/01 09:12:10;;;;;;;0.30;0.30;;;13.10;97.80;14.50;98212.00;;;;5014889;28;20686;-60
2024/04/01 09:14:36;;;;;;;0.35;0.35;;;13.10;97.80;14.40;98200.00;;;;5017649;28;20255;-60
2024/04/01 09:17:04;;;;;;;0.40;0.40;;;13.10;97.70;14.40;98205.00;;;;5016053;28;20727;-60
2024/04/01 09:19:34;;;;;;;0.30;0.30;;;13.10;97.70;14.40;98205.00;;;;5019261;28;20204;-61
2024/04/01 09:22:01;;;;;;;0.40;0.40;;;13.00;97.90;14.30;98208.00;;;;5016305;28;20228;-61
2024/04/01 09:24:28;;;;;;;0.40;0.40;;;13.00;97.80;14.30;98224.00;;;;5015566;28;20213;-59
2024/04/01 09:26:56;;;;;;;0.30;0.30;;;13.00;97.90;14.30;98226.00;;;;5017000;28;20575;-60
2024/04/01 09:29:22;;;;;;;0.30;0.30;;;13.00;97.90;14.40;98239.00;;;;5016426;28;20209;-64
2024/04/01 09:31:50;;;;;;;0.30;0.30;;;13.00;97.90;14.30;98229.00;;;;5015594;28;20252;-64
2024/04/01 09:34:18;;;;;;;0.35;0.35;;;13.00;98.00;14.30;98231.00;;;;5017472;28;20214;-66
2024/04/01 09:36:47;;;;;;;0.40;0.40;;;13.00;98.00;14.30;98221.00;;;;5015187;28;20626;-63
2024/04/01 09:39:13;;;;;;;0.40;0.40;;;13.00;98.00;14.30;98229.00;;;;5015551;28;20212;-64
2024/04/01 09:41:41;;;;;;;0.30;0.30;;;13.00;97.90;14.30;98244.00;;;;5015724;28;20236;-65
2024/04/01 09:44:10;;;;;;;0.40;0.40;;;13.00;97.90;14.30;98236.00;;;;5015366;28;20296;-65
2024/04/01 09:46:38;;;;;;;0.30;0.30;;;13.00;98.00;14.30;98246.00;;;;5016580;28;20563;-64
2024/04/01 09:49:06;;;;;;;0.40;0.40;;;13.00;98.00;14.30;98245.00;;;;5015819;28;20633;-65
2024/04/01 09:51:35;;;;;;;0.30;0.30;;;13.00;98.10;14.30;98259.00;;;;5015434;28;20260;-66
2024/04/01 09:54:03;;;;;;;0.32;0.32;;;13.00;98.10;14.20;98243.00;;;;5014889;28;20213;-64
2024/04/01 09:57:29;;;;;;;0.30;0.30;;;13.00;98.20;14.30;98258.00;;;;5021083;28;20206;-62
2024/04/01 10:00:16;;;;;;;0.40;0.40;;;13.00;98.60;14.30;98242.00;;;;5017277;28;20243;-61
2024/04/01 10:03:28;;;;;;;0.40;0.40;;;13.00;98.60;14.30;98260.00;;;;5015498;28;20310;-60
2024/04/01 10:06:45;;;;;;;0.30;0.30;;;13.00;98.60;14.40;98263.00;;;;5013230;28;20259;-60
2024/04/01 10:10:22;;;;;;;0.30;0.30;;;13.00;98.70;14.40;98269.00;;;;5013476;28;20545;-61
2024/04/01 10:13:54;;;;;;;0.40;0.40;;;13.10;98.80;14.40;98281.00;;;;5016432;28;20212;-62
2024/04/01 10:17:13;;;;;;;0.30;0.30;;;13.10;98.60;14.40;98289.00;;;;4994668;28;20522;-60
2024/04/01 10:20:13;;;;;;;0.40;0.40;;;13.10;98.20;14.40;98278.00;;;;5016293;28;20620;-59
2024/04/01 10:23:28;;;;;;;0.40;0.40;;;13.10;98.40;14.30;98293.00;;;;5014036;28;20258;-61
2024/04/01 10:26:40;;;;;;;0.40;0.40;;;13.10;98.40;14.40;98291.00;;;;4977572;28;20214;-59
2024/04/01 10:29:52;;;;;;;0.40;0.40;;;13.10;98.40;14.40;98275.00;;;;4992409;28;20209;-60
2024/04/01 10:33:07;;;;;;;0.30;0.30;;;13.10;98.40;14.40;98284.00;;;;4997313;28;20217;-60
2024/04/01 10:36:07;;;;;;;0.32;0.32;;;13.10;98.40;14.40;98287.00;;;;5000721;28;20402;-59
2024/04/01 10:39:42;;;;;;;0.35;0.35;;;13.10;98.30;14.40;98288.00;;;;5013366;28;20502;-63
2024/04/01 10:43:05;;;;;;;0.40;0.40;;;13.10;98.50;14.40;98289.00;;;;5013182;28;20217;-65
2024/04/01 10:46:34;;;;;;;0.40;0.40;;;13.10;98.40;14.40;98302.00;;;;5015590;28;21146;-64
2024/04/01 10:49:48;;;;;;;0.40;0.40;;;13.10;98.40;14.40;98314.00;;;;4962318;28;20213;-64
2024/04/01 10:53:08;;;;;;;0.40;0.40;;;13.20;98.50;14.50;98293.00;;;;5012395;28;20237;-64
2024/04/01 10:56:26;;;;;;;0.30;0.30;;;13.20;98.80;14.50;98314.00;;;;4991870;28;20209;-64
2024/04/01 11:00:05;;;;;;;0.40;0.40;;;13.20;98.70;14.60;98320.00;;;;5012828;28;20765;-64
2024/04/01 11:03:41;;;;;;;0.38;0.38;;;13.30;98.70;14.70;98343.00;;;;5014384;28;20315;-64
2024/04/01 11:06:39;;;;;;;0.40;0.40;;;13.30;98.70;14.70;98321.00;;;;5015087;28;20236;-64
2024/04/01 11:09:30;;;;;;;0.40;0.40;;;13.30;98.40;14.70;98341.00;;;;5013213;28;20312;-64
2024/04/01 11:12:16;;;;;;;0.30;0.30;;;13.40;98.60;14.80;98350.00;;;;5017453;28;20221;-64
2024/04/01 11:14:49;;;;;;;0.40;0.40;;;13.40;98.50;14.80;98315.00;;;;5013816;28;20201;-63
2024/04/01 11:17:17;;;;;;;0.40;0.40;;;13.40;98.40;14.90;98369.00;;;;5014801;28;20256;-63